sensor_id;sensor_type;location;lat;lon;timestamp;P1;durP1;ratioP1;P2;durP2;ratioP2
23995;SDS011;12207;50.076;8.848;2024-02-21T00:01:54;355.55;;;79.53;;
23995;SDS011;12207;50.076;8.848;2024-02-21T00:04:20;354.15;;;79.32;;
23995;SDS011;12207;50.076;8.848;2024-02-21T00:06:46;362.02;;;80.18;;
23995;SDS011;12207;50.076;8.848;2024-02-21T00:09:16;367.52;;;81.20;;
23995;SDS011;12207;50.076;8.848;2024-02-21T00:11:43;364.00;;;79.95;;
23995;SDS011;12207;50.076;8.848;2024-02-21T00:14:09;405.67;;;84.90;;
23995;SDS011;12207;50.076;8.848;2024-02-21T00:16:35;358.85;;;79.05;;
23995;SDS011;12207;50.076;8.848;2024-02-21T00:19:01;375.90;;;82.60;;
23995;SDS011;12207;50.076;8.848;2024-02-21T00:21:27;355.30;;;78.70;;
23995;SDS011;12207;50.076;8.848;2024-02-21T00:23:54;347.85;;;80.78;;
23995;SDS011;12207;50.076;8.848;2024-02-21T00:26:20;390.10;;;82.90;;
23995;SDS011;12207;50.076;8.848;2024-02-21T00:28:46;393.15;;;84.10;;
23995;SDS011;12207;50.076;8.848;2024-02-21T00:31:12;397.27;;;84.03;;
23995;SDS011;12207;50.076;8.848;2024-02-21T00:33:39;351.33;;;79.85;;
23995;SDS011;12207;50.076;8.848;2024-02-21T00:36:05;358.02;;;79.10;;
23995;SDS011;12207;50.076;8.848;2024-02-21T00:38:33;348.02;;;79.22;;
23995;SDS011;12207;50.076;8.848;2024-02-21T00:41:00;359.42;;;78.78;;
23995;SDS011;12207;50.076;8.848;2024-02-21T00:43:26;367.58;;;79.95;;
23995;SDS011;12207;50.076;8.848;2024-02-21T00:45:52;351.30;;;79.80;;
23995;SDS011;12207;50.076;8.848;2024-02-21T00:48:18;343.75;;;77.13;;
23995;SDS011;12207;50.076;8.848;2024-02-21T00:50:44;341.92;;;78.22;;
23995;SDS011;12207;50.076;8.848;2024-02-21T00:53:11;368.35;;;79.82;;
23995;SDS011;12207;50.076;8.848;2024-02-21T00:55:37;355.42;;;78.53;;
23995;SDS011;12207;50.076;8.848;2024-02-21T00:58:03;352.73;;;77.93;;
23995;SDS011;12207;50.076;8.848;2024-02-21T01:00:29;352.30;;;78.45;;
23995;SDS011;12207;50.076;8.848;2024-02-21T01:02:55;351.30;;;78.45;;
23995;SDS011;12207;50.076;8.848;2024-02-21T01:05:21;370.60;;;79.53;;
23995;SDS011;12207;50.076;8.848;2024-02-21T01:07:48;349.27;;;78.07;;
23995;SDS011;12207;50.076;8.848;2024-02-21T01:10:14;351.65;;;77.43;;
23995;SDS011;12207;50.076;8.848;2024-02-21T01:12:40;366.05;;;80.13;;
23995;SDS011;12207;50.076;8.848;2024-02-21T01:15:06;342.10;;;77.00;;
23995;SDS011;12207;50.076;8.848;2024-02-21T01:17:32;365.08;;;80.32;;
23995;SDS011;12207;50.076;8.848;2024-02-21T01:19:58;386.73;;;82.40;;
23995;SDS011;12207;50.076;8.848;2024-02-21T01:22:24;361.80;;;80.22;;
23995;SDS011;12207;50.076;8.848;2024-02-21T01:24:50;368.08;;;80.20;;
23995;SDS011;12207;50.076;8.848;2024-02-21T01:27:17;372.77;;;80.70;;
23995;SDS011;12207;50.076;8.848;2024-02-21T01:29:43;359.88;;;79.28;;
23995;SDS011;12207;50.076;8.848;2024-02-21T01:32:09;354.33;;;78.60;;
23995;SDS011;12207;50.076;8.848;2024-02-21T01:34:35;346.35;;;77.40;;
23995;SDS011;12207;50.076;8.848;2024-02-21T01:37:02;346.42;;;77.38;;
23995;SDS011;12207;50.076;8.848;2024-02-21T01:39:32;354.52;;;77.75;;
23995;SDS011;12207;50.076;8.848;2024-02-21T01:41:59;355.42;;;80.78;;
23995;SDS011;12207;50.076;8.848;2024-02-21T01:44:25;357.38;;;78.32;;
23995;SDS011;12207;50.076;8.848;2024-02-21T01:46:52;356.27;;;78.57;;
23995;SDS011;12207;50.076;8.848;2024-02-21T01:49:19;353.90;;;78.45;;
23995;SDS011;12207;50.076;8.848;2024-02-21T01:51:46;350.45;;;76.95;;
23995;SDS011;12207;50.076;8.848;2024-02-21T01:54:13;348.10;;;77.72;;
23995;SDS011;12207;50.076;8.848;2024-02-21T01:56:41;347.63;;;77.47;;
23995;SDS011;12207;50.076;8.848;2024-02-21T01:59:08;354.23;;;78.63;;
23995;SDS011;12207;50.076;8.848;2024-02-21T02:01:34;356.45;;;78.40;;
23995;SDS011;12207;50.076;8.848;2024-02-21T02:04:01;358.52;;;79.88;;
23995;SDS011;12207;50.076;8.848;2024-02-21T02:06:30;357.05;;;79.85;;
23995;SDS011;12207;50.076;8.848;2024-02-21T02:08:56;353.95;;;79.82;;
23995;SDS011;12207;50.076;8.848;2024-02-21T02:11:22;356.88;;;78.57;;
23995;SDS011;12207;50.076;8.848;2024-02-21T02:13:49;376.70;;;81.00;;
23995;SDS011;12207;50.076;8.848;2024-02-21T02:16:15;357.85;;;78.90;;
23995;SDS011;12207;50.076;8.848;2024-02-21T02:18:41;360.15;;;79.72;;
23995;SDS011;12207;50.076;8.848;2024-02-21T02:21:10;356.05;;;79.65;;
23995;SDS011;12207;50.076;8.848;2024-02-21T02:26:27;350.33;;;78.50;;
23995;SDS011;12207;50.076;8.848;2024-02-21T02:28:53;360.58;;;78.90;;
23995;SDS011;12207;50.076;8.848;2024-02-21T02:31:20;355.08;;;79.07;;
23995;SDS011;12207;50.076;8.848;2024-02-21T02:33:46;355.80;;;79.25;;
23995;SDS011;12207;50.076;8.848;2024-02-21T02:36:13;361.73;;;79.72;;
23995;SDS011;12207;50.076;8.848;2024-02-21T02:38:39;355.65;;;77.97;;
23995;SDS011;12207;50.076;8.848;2024-02-21T02:41:05;356.30;;;78.55;;
23995;SDS011;12207;50.076;8.848;2024-02-21T02:43:31;360.42;;;79.50;;
23995;SDS011;12207;50.076;8.848;2024-02-21T02:45:57;363.73;;;80.20;;
23995;SDS011;12207;50.076;8.848;2024-02-21T02:48:23;357.08;;;79.43;;
23995;SDS011;12207;50.076;8.848;2024-02-21T02:50:49;364.90;;;79.78;;
23995;SDS011;12207;50.076;8.848;2024-02-21T02:53:16;353.67;;;79.15;;
23995;SDS011;12207;50.076;8.848;2024-02-21T02:55:42;342.95;;;77.57;;
23995;SDS011;12207;50.076;8.848;2024-02-21T02:58:08;359.05;;;79.18;;
23995;SDS011;12207;50.076;8.848;2024-02-21T03:00:34;342.25;;;76.53;;
23995;SDS011;12207;50.076;8.848;2024-02-21T03:03:01;346.55;;;79.03;;
23995;SDS011;12207;50.076;8.848;2024-02-21T03:05:30;363.98;;;79.63;;
23995;SDS011;12207;50.076;8.848;2024-02-21T03:07:56;355.50;;;79.18;;
23995;SDS011;12207;50.076;8.848;2024-02-21T03:10:23;360.20;;;80.47;;
23995;SDS011;12207;50.076;8.848;2024-02-21T03:12:49;368.98;;;81.00;;
23995;SDS011;12207;50.076;8.848;2024-02-21T03:15:18;357.60;;;78.88;;
23995;SDS011;12207;50.076;8.848;2024-02-21T03:17:44;352.25;;;80.55;;
23995;SDS011;12207;50.076;8.848;2024-02-21T03:20:10;350.80;;;78.03;;
23995;SDS011;12207;50.076;8.848;2024-02-21T03:22:36;351.77;;;77.18;;
23995;SDS011;12207;50.076;8.848;2024-02-21T03:25:03;351.58;;;78.75;;
23995;SDS011;12207;50.076;8.848;2024-02-21T03:27:29;348.70;;;77.85;;
23995;SDS011;12207;50.076;8.848;2024-02-21T03:29:55;363.30;;;80.03;;
23995;SDS011;12207;50.076;8.848;2024-02-21T03:32:21;353.95;;;78.95;;
23995;SDS011;12207;50.076;8.848;2024-02-21T03:34:48;351.35;;;77.40;;
23995;SDS011;12207;50.076;8.848;2024-02-21T03:37:14;350.65;;;78.30;;
23995;SDS011;12207;50.076;8.848;2024-02-21T03:39:40;351.65;;;78.68;;
23995;SDS011;12207;50.076;8.848;2024-02-21T03:42:06;353.55;;;77.72;;
23995;SDS011;12207;50.076;8.848;2024-02-21T03:44:33;370.58;;;80.75;;
23995;SDS011;12207;50.076;8.848;2024-02-21T03:46:59;345.27;;;77.00;;
23995;SDS011;12207;50.076;8.848;2024-02-21T03:49:25;351.35;;;79.50;;
23995;SDS011;12207;50.076;8.848;2024-02-21T03:51:51;367.88;;;79.97;;
23995;SDS011;12207;50.076;8.848;2024-02-21T03:54:18;362.33;;;79.30;;
23995;SDS011;12207;50.076;8.848;2024-02-21T03:56:47;355.27;;;77.78;;
23995;SDS011;12207;50.076;8.848;2024-02-21T03:59:13;365.48;;;80.70;;
23995;SDS011;12207;50.076;8.848;2024-02-21T04:01:51;347.90;;;77.65;;
23995;SDS011;12207;50.076;8.848;2024-02-21T04:04:17;355.27;;;80.60;;
23995;SDS011;12207;50.076;8.848;2024-02-21T04:06:49;378.88;;;82.03;;
23995;SDS011;12207;50.076;8.848;2024-02-21T04:09:16;348.25;;;78.40;;
23995;SDS011;12207;50.076;8.848;2024-02-21T04:11:42;351.98;;;79.43;;
23995;SDS011;12207;50.076;8.848;2024-02-21T04:14:08;352.90;;;79.68;;
23995;SDS011;12207;50.076;8.848;2024-02-21T04:16:36;360.55;;;80.55;;
23995;SDS011;12207;50.076;8.848;2024-02-21T04:19:03;349.45;;;79.60;;
23995;SDS011;12207;50.076;8.848;2024-02-21T04:21:29;360.70;;;80.43;;
23995;SDS011;12207;50.076;8.848;2024-02-21T04:23:55;344.20;;;76.55;;
23995;SDS011;12207;50.076;8.848;2024-02-21T04:26:21;344.63;;;77.85;;
23995;SDS011;12207;50.076;8.848;2024-02-21T04:28:47;370.23;;;80.40;;
23995;SDS011;12207;50.076;8.848;2024-02-21T04:31:13;346.98;;;77.43;;
23995;SDS011;12207;50.076;8.848;2024-02-21T04:33:42;340.90;;;76.13;;
23995;SDS011;12207;50.076;8.848;2024-02-21T04:36:08;349.25;;;78.07;;
23995;SDS011;12207;50.076;8.848;2024-02-21T04:38:35;347.27;;;78.18;;
23995;SDS011;12207;50.076;8.848;2024-02-21T04:41:01;361.60;;;79.15;;
23995;SDS011;12207;50.076;8.848;2024-02-21T04:43:27;351.77;;;77.50;;
23995;SDS011;12207;50.076;8.848;2024-02-21T04:45:53;337.42;;;75.82;;
23995;SDS011;12207;50.076;8.848;2024-02-21T04:48:19;338.15;;;75.93;;
23995;SDS011;12207;50.076;8.848;2024-02-21T04:50:45;363.15;;;80.85;;
23995;SDS011;12207;50.076;8.848;2024-02-21T04:53:11;336.90;;;75.45;;
23995;SDS011;12207;50.076;8.848;2024-02-21T04:55:38;348.23;;;77.28;;
23995;SDS011;12207;50.076;8.848;2024-02-21T04:58:05;369.67;;;80.43;;
23995;SDS011;12207;50.076;8.848;2024-02-21T05:00:31;353.88;;;79.25;;
23995;SDS011;12207;50.076;8.848;2024-02-21T05:02:57;364.80;;;79.57;;
23995;SDS011;12207;50.076;8.848;2024-02-21T05:05:23;355.67;;;79.45;;
23995;SDS011;12207;50.076;8.848;2024-02-21T05:07:49;349.38;;;76.15;;
23995;SDS011;12207;50.076;8.848;2024-02-21T05:10:15;355.38;;;77.78;;
23995;SDS011;12207;50.076;8.848;2024-02-21T05:12:42;350.55;;;77.60;;
23995;SDS011;12207;50.076;8.848;2024-02-21T05:15:08;347.05;;;77.03;;
23995;SDS011;12207;50.076;8.848;2024-02-21T05:17:35;352.23;;;76.88;;
23995;SDS011;12207;50.076;8.848;2024-02-21T05:20:01;349.23;;;76.43;;
23995;SDS011;12207;50.076;8.848;2024-02-21T05:22:27;367.67;;;80.43;;
23995;SDS011;12207;50.076;8.848;2024-02-21T05:24:54;369.20;;;79.40;;
23995;SDS011;12207;50.076;8.848;2024-02-21T05:27:20;351.38;;;77.32;;
23995;SDS011;12207;50.076;8.848;2024-02-21T05:29:46;377.50;;;79.95;;
23995;SDS011;12207;50.076;8.848;2024-02-21T05:32:13;356.33;;;77.60;;
23995;SDS011;12207;50.076;8.848;2024-02-21T05:34:39;358.02;;;79.30;;
23995;SDS011;12207;50.076;8.848;2024-02-21T05:37:05;360.42;;;78.95;;
23995;SDS011;12207;50.076;8.848;2024-02-21T05:39:31;364.20;;;79.57;;
23995;SDS011;12207;50.076;8.848;2024-02-21T05:41:57;352.20;;;81.00;;
23995;SDS011;12207;50.076;8.848;2024-02-21T05:44:23;362.88;;;78.97;;
23995;SDS011;12207;50.076;8.848;2024-02-21T05:46:51;373.30;;;80.35;;
23995;SDS011;12207;50.076;8.848;2024-02-21T05:49:18;352.70;;;77.70;;
23995;SDS011;12207;50.076;8.848;2024-02-21T05:51:44;356.48;;;77.43;;
23995;SDS011;12207;50.076;8.848;2024-02-21T05:54:10;350.27;;;77.63;;
23995;SDS011;12207;50.076;8.848;2024-02-21T05:56:36;345.70;;;77.57;;
23995;SDS011;12207;50.076;8.848;2024-02-21T05:59:02;353.67;;;77.38;;
23995;SDS011;12207;50.076;8.848;2024-02-21T06:01:28;354.40;;;76.93;;
23995;SDS011;12207;50.076;8.848;2024-02-21T06:03:54;367.58;;;79.45;;
23995;SDS011;12207;50.076;8.848;2024-02-21T06:06:20;386.05;;;81.63;;
23995;SDS011;12207;50.076;8.848;2024-02-21T06:08:47;351.88;;;77.50;;
23995;SDS011;12207;50.076;8.848;2024-02-21T06:11:13;343.17;;;76.28;;
23995;SDS011;12207;50.076;8.848;2024-02-21T06:13:41;363.55;;;80.03;;
23995;SDS011;12207;50.076;8.848;2024-02-21T06:16:08;355.17;;;77.80;;
23995;SDS011;12207;50.076;8.848;2024-02-21T06:18:35;342.90;;;76.68;;
23995;SDS011;12207;50.076;8.848;2024-02-21T06:21:02;343.80;;;76.50;;
23995;SDS011;12207;50.076;8.848;2024-02-21T06:23:28;360.35;;;79.10;;
23995;SDS011;12207;50.076;8.848;2024-02-21T06:25:54;357.65;;;77.32;;
23995;SDS011;12207;50.076;8.848;2024-02-21T06:28:21;349.48;;;78.45;;
23995;SDS011;12207;50.076;8.848;2024-02-21T06:30:47;359.25;;;78.55;;
23995;SDS011;12207;50.076;8.848;2024-02-21T06:33:13;338.08;;;75.68;;
23995;SDS011;12207;50.076;8.848;2024-02-21T06:35:39;344.73;;;77.22;;
23995;SDS011;12207;50.076;8.848;2024-02-21T06:38:07;355.88;;;78.55;;
23995;SDS011;12207;50.076;8.848;2024-02-21T06:40:33;349.15;;;78.15;;
23995;SDS011;12207;50.076;8.848;2024-02-21T06:43:04;345.05;;;77.40;;
23995;SDS011;12207;50.076;8.848;2024-02-21T06:45:30;364.05;;;79.13;;
23995;SDS011;12207;50.076;8.848;2024-02-21T06:47:56;360.83;;;77.80;;
23995;SDS011;12207;50.076;8.848;2024-02-21T06:50:23;350.63;;;78.38;;
23995;SDS011;12207;50.076;8.848;2024-02-21T06:52:49;353.77;;;77.55;;
23995;SDS011;12207;50.076;8.848;2024-02-21T06:55:15;344.52;;;76.28;;
23995;SDS011;12207;50.076;8.848;2024-02-21T06:57:42;341.73;;;77.00;;
23995;SDS011;12207;50.076;8.848;2024-02-21T07:00:08;344.65;;;75.93;;
23995;SDS011;12207;50.076;8.848;2024-02-21T07:02:34;356.92;;;78.18;;
23995;SDS011;12207;50.076;8.848;2024-02-21T07:05:00;351.05;;;78.10;;
23995;SDS011;12207;50.076;8.848;2024-02-21T07:07:27;369.67;;;80.70;;
23995;SDS011;12207;50.076;8.848;2024-02-21T07:09:54;344.83;;;78.20;;
23995;SDS011;12207;50.076;8.848;2024-02-21T07:12:20;365.13;;;79.35;;
23995;SDS011;12207;50.076;8.848;2024-02-21T07:14:46;360.13;;;79.43;;
23995;SDS011;12207;50.076;8.848;2024-02-21T07:17:12;367.05;;;79.50;;
23995;SDS011;12207;50.076;8.848;2024-02-21T07:19:38;333.90;;;75.97;;
23995;SDS011;12207;50.076;8.848;2024-02-21T07:22:04;338.92;;;76.57;;
23995;SDS011;12207;50.076;8.848;2024-02-21T07:24:34;344.42;;;75.97;;
23995;SDS011;12207;50.076;8.848;2024-02-21T07:27:00;378.58;;;81.07;;
23995;SDS011;12207;50.076;8.848;2024-02-21T07:29:29;367.00;;;80.95;;
23995;SDS011;12207;50.076;8.848;2024-02-21T07:31:55;376.73;;;81.13;;
23995;SDS011;12207;50.076;8.848;2024-02-21T07:34:22;361.77;;;78.78;;
23995;SDS011;12207;50.076;8.848;2024-02-21T07:36:48;358.15;;;79.30;;
23995;SDS011;12207;50.076;8.848;2024-02-21T07:39:14;338.38;;;75.25;;
23995;SDS011;12207;50.076;8.848;2024-02-21T07:41:40;348.70;;;79.45;;
23995;SDS011;12207;50.076;8.848;2024-02-21T07:44:11;365.90;;;80.50;;
23995;SDS011;12207;50.076;8.848;2024-02-21T07:46:37;347.90;;;77.60;;
23995;SDS011;12207;50.076;8.848;2024-02-21T07:49:03;344.90;;;77.75;;
23995;SDS011;12207;50.076;8.848;2024-02-21T07:51:29;382.65;;;81.00;;
23995;SDS011;12207;50.076;8.848;2024-02-21T07:53:55;369.42;;;80.88;;
23995;SDS011;12207;50.076;8.848;2024-02-21T07:56:21;353.63;;;78.15;;
23995;SDS011;12207;50.076;8.848;2024-02-21T07:58:48;350.58;;;78.70;;
23995;SDS011;12207;50.076;8.848;2024-02-21T08:01:20;363.40;;;80.68;;
23995;SDS011;12207;50.076;8.848;2024-02-21T08:03:48;358.80;;;78.95;;
23995;SDS011;12207;50.076;8.848;2024-02-21T08:06:14;355.55;;;79.78;;
23995;SDS011;12207;50.076;8.848;2024-02-21T08:08:40;352.00;;;79.15;;
23995;SDS011;12207;50.076;8.848;2024-02-21T08:11:06;355.52;;;78.90;;
23995;SDS011;12207;50.076;8.848;2024-02-21T08:13:33;346.17;;;79.68;;
23995;SDS011;12207;50.076;8.848;2024-02-21T08:15:59;362.98;;;80.45;;
23995;SDS011;12207;50.076;8.848;2024-02-21T08:18:25;360.50;;;81.43;;
23995;SDS011;12207;50.076;8.848;2024-02-21T08:20:51;365.50;;;81.10;;
23995;SDS011;12207;50.076;8.848;2024-02-21T08:23:18;365.13;;;80.30;;
23995;SDS011;12207;50.076;8.848;2024-02-21T08:25:44;344.80;;;78.78;;
23995;SDS011;12207;50.076;8.848;2024-02-21T08:28:11;357.35;;;79.38;;
23995;SDS011;12207;50.076;8.848;2024-02-21T08:30:38;367.02;;;81.22;;
23995;SDS011;12207;50.076;8.848;2024-02-21T08:33:04;351.10;;;79.25;;
23995;SDS011;12207;50.076;8.848;2024-02-21T08:35:30;359.95;;;79.50;;
23995;SDS011;12207;50.076;8.848;2024-02-21T08:37:56;382.75;;;83.28;;
23995;SDS011;12207;50.076;8.848;2024-02-21T08:40:25;362.70;;;80.30;;
23995;SDS011;12207;50.076;8.848;2024-02-21T08:42:51;374.85;;;82.18;;
23995;SDS011;12207;50.076;8.848;2024-02-21T08:45:18;369.83;;;82.00;;
23995;SDS011;12207;50.076;8.848;2024-02-21T08:47:45;351.02;;;80.53;;
23995;SDS011;12207;50.076;8.848;2024-02-21T08:50:11;352.15;;;79.40;;
23995;SDS011;12207;50.076;8.848;2024-02-21T08:52:37;376.80;;;83.88;;
23995;SDS011;12207;50.076;8.848;2024-02-21T08:55:03;363.38;;;81.95;;
23995;SDS011;12207;50.076;8.848;2024-02-21T08:57:30;376.70;;;82.70;;
23995;SDS011;12207;50.076;8.848;2024-02-21T09:00:01;368.35;;;81.93;;
23995;SDS011;12207;50.076;8.848;2024-02-21T09:02:41;375.10;;;82.50;;
23995;SDS011;12207;50.076;8.848;2024-02-21T09:05:10;361.38;;;80.38;;
23995;SDS011;12207;50.076;8.848;2024-02-21T09:07:37;348.65;;;78.25;;
23995;SDS011;12207;50.076;8.848;2024-02-21T09:10:03;353.10;;;79.38;;
23995;SDS011;12207;50.076;8.848;2024-02-21T09:12:30;373.20;;;81.47;;
23995;SDS011;12207;50.076;8.848;2024-02-21T09:14:56;360.85;;;80.15;;
23995;SDS011;12207;50.076;8.848;2024-02-21T09:17:22;379.10;;;81.43;;
23995;SDS011;12207;50.076;8.848;2024-02-21T09:19:50;363.55;;;81.03;;
23995;SDS011;12207;50.076;8.848;2024-02-21T09:22:16;343.30;;;78.10;;
23995;SDS011;12207;50.076;8.848;2024-02-21T09:24:42;383.13;;;84.90;;
23995;SDS011;12207;50.076;8.848;2024-02-21T09:27:08;345.65;;;80.70;;
23995;SDS011;12207;50.076;8.848;2024-02-21T09:29:34;364.92;;;80.53;;
23995;SDS011;12207;50.076;8.848;2024-02-21T09:32:01;370.38;;;82.35;;
23995;SDS011;12207;50.076;8.848;2024-02-21T09:34:27;380.52;;;83.45;;
23995;SDS011;12207;50.076;8.848;2024-02-21T09:36:54;387.58;;;83.93;;
23995;SDS011;12207;50.076;8.848;2024-02-21T09:39:20;357.95;;;81.07;;
23995;SDS011;12207;50.076;8.848;2024-02-21T09:41:49;373.33;;;84.80;;
23995;SDS011;12207;50.076;8.848;2024-02-21T09:44:32;364.27;;;80.18;;
23995;SDS011;12207;50.076;8.848;2024-02-21T09:47:03;356.25;;;80.13;;
23995;SDS011;12207;50.076;8.848;2024-02-21T09:49:49;350.67;;;79.15;;
23995;SDS011;12207;50.076;8.848;2024-02-21T09:52:19;365.25;;;81.13;;
23995;SDS011;12207;50.076;8.848;2024-02-21T09:54:47;357.00;;;79.57;;
23995;SDS011;12207;50.076;8.848;2024-02-21T09:57:13;355.58;;;79.57;;
23995;SDS011;12207;50.076;8.848;2024-02-21T09:59:41;364.08;;;80.43;;
23995;SDS011;12207;50.076;8.848;2024-02-21T10:02:07;370.85;;;82.57;;
23995;SDS011;12207;50.076;8.848;2024-02-21T10:04:33;370.45;;;82.88;;
23995;SDS011;12207;50.076;8.848;2024-02-21T10:07:01;365.75;;;82.70;;
23995;SDS011;12207;50.076;8.848;2024-02-21T10:09:28;373.85;;;82.57;;
23995;SDS011;12207;50.076;8.848;2024-02-21T10:11:55;359.05;;;80.40;;
23995;SDS011;12207;50.076;8.848;2024-02-21T10:14:36;375.80;;;83.22;;
23995;SDS011;12207;50.076;8.848;2024-02-21T10:17:04;358.27;;;81.57;;
23995;SDS011;12207;50.076;8.848;2024-02-21T10:19:34;356.33;;;80.40;;
23995;SDS011;12207;50.076;8.848;2024-02-21T10:22:01;371.45;;;83.38;;
23995;SDS011;12207;50.076;8.848;2024-02-21T10:24:33;360.02;;;81.18;;
23995;SDS011;12207;50.076;8.848;2024-02-21T10:27:01;358.13;;;81.38;;
23995;SDS011;12207;50.076;8.848;2024-02-21T10:29:31;394.08;;;86.03;;
23995;SDS011;12207;50.076;8.848;2024-02-21T10:32:07;367.20;;;81.40;;
23995;SDS011;12207;50.076;8.848;2024-02-21T10:34:40;357.88;;;80.47;;
23995;SDS011;12207;50.076;8.848;2024-02-21T10:37:10;356.20;;;80.65;;
23995;SDS011;12207;50.076;8.848;2024-02-21T10:39:37;359.77;;;81.97;;
23995;SDS011;12207;50.076;8.848;2024-02-21T10:42:05;358.02;;;81.07;;
23995;SDS011;12207;50.076;8.848;2024-02-21T10:44:34;380.02;;;83.43;;
23995;SDS011;12207;50.076;8.848;2024-02-21T10:47:07;365.20;;;81.10;;
23995;SDS011;12207;50.076;8.848;2024-02-21T10:49:38;359.90;;;80.15;;
23995;SDS011;12207;50.076;8.848;2024-02-21T10:52:13;366.70;;;86.63;;
23995;SDS011;12207;50.076;8.848;2024-02-21T10:55:10;365.65;;;81.82;;
23995;SDS011;12207;50.076;8.848;2024-02-21T10:57:54;390.67;;;84.30;;
23995;SDS011;12207;50.076;8.848;2024-02-21T11:00:22;380.23;;;84.80;;
23995;SDS011;12207;50.076;8.848;2024-02-21T11:02:55;388.92;;;85.75;;
23995;SDS011;12207;50.076;8.848;2024-02-21T11:05:23;378.23;;;83.78;;
23995;SDS011;12207;50.076;8.848;2024-02-21T11:07:54;365.50;;;81.50;;
23995;SDS011;12207;50.076;8.848;2024-02-21T11:10:22;377.10;;;88.90;;
23995;SDS011;12207;50.076;8.848;2024-02-21T11:12:52;373.08;;;83.32;;
23995;SDS011;12207;50.076;8.848;2024-02-21T11:15:39;385.67;;;83.85;;
23995;SDS011;12207;50.076;8.848;2024-02-21T11:18:06;360.90;;;82.10;;
23995;SDS011;12207;50.076;8.848;2024-02-21T11:20:36;375.83;;;83.38;;
23995;SDS011;12207;50.076;8.848;2024-02-21T11:23:04;389.58;;;84.93;;
23995;SDS011;12207;50.076;8.848;2024-02-21T11:25:31;373.13;;;83.63;;
23995;SDS011;12207;50.076;8.848;2024-02-21T11:27:59;380.45;;;82.95;;
23995;SDS011;12207;50.076;8.848;2024-02-21T11:30:30;369.35;;;83.10;;
23995;SDS011;12207;50.076;8.848;2024-02-21T11:33:06;368.52;;;82.97;;
23995;SDS011;12207;50.076;8.848;2024-02-21T11:35:33;396.88;;;86.47;;
23995;SDS011;12207;50.076;8.848;2024-02-21T11:38:09;415.52;;;87.82;;
23995;SDS011;12207;50.076;8.848;2024-02-21T11:40:39;379.02;;;84.97;;
23995;SDS011;12207;50.076;8.848;2024-02-21T11:43:06;371.30;;;84.18;;
23995;SDS011;12207;50.076;8.848;2024-02-21T11:45:33;376.13;;;84.03;;
23995;SDS011;12207;50.076;8.848;2024-02-21T11:47:59;367.13;;;82.10;;
23995;SDS011;12207;50.076;8.848;2024-02-21T11:50:29;383.75;;;83.55;;
23995;SDS011;12207;50.076;8.848;2024-02-21T11:52:56;380.08;;;82.90;;
23995;SDS011;12207;50.076;8.848;2024-02-21T11:55:23;378.45;;;84.65;;
23995;SDS011;12207;50.076;8.848;2024-02-21T11:57:52;362.65;;;80.75;;
23995;SDS011;12207;50.076;8.848;2024-02-21T12:00:18;369.85;;;82.30;;
23995;SDS011;12207;50.076;8.848;2024-02-21T12:02:46;370.35;;;82.55;;
23995;SDS011;12207;50.076;8.848;2024-02-21T12:05:13;370.20;;;83.07;;
23995;SDS011;12207;50.076;8.848;2024-02-21T12:07:40;363.48;;;82.35;;
23995;SDS011;12207;50.076;8.848;2024-02-21T12:10:12;360.23;;;82.68;;
23995;SDS011;12207;50.076;8.848;2024-02-21T12:12:39;372.42;;;82.70;;
23995;SDS011;12207;50.076;8.848;2024-02-21T12:15:06;364.17;;;82.85;;
23995;SDS011;12207;50.076;8.848;2024-02-21T12:17:33;364.42;;;83.45;;
23995;SDS011;12207;50.076;8.848;2024-02-21T12:20:00;380.15;;;84.10;;
23995;SDS011;12207;50.076;8.848;2024-02-21T12:22:29;371.08;;;82.80;;
23995;SDS011;12207;50.076;8.848;2024-02-21T12:24:57;379.50;;;84.75;;
23995;SDS011;12207;50.076;8.848;2024-02-21T12:27:24;383.42;;;84.75;;
23995;SDS011;12207;50.076;8.848;2024-02-21T12:29:51;374.38;;;84.05;;
23995;SDS011;12207;50.076;8.848;2024-02-21T12:32:17;389.33;;;85.63;;
23995;SDS011;12207;50.076;8.848;2024-02-21T12:34:43;381.35;;;84.10;;
23995;SDS011;12207;50.076;8.848;2024-02-21T12:37:12;375.48;;;84.65;;
23995;SDS011;12207;50.076;8.848;2024-02-21T12:39:41;371.20;;;82.97;;
23995;SDS011;12207;50.076;8.848;2024-02-21T12:42:08;376.85;;;83.47;;
23995;SDS011;12207;50.076;8.848;2024-02-21T12:44:36;354.92;;;80.82;;
23995;SDS011;12207;50.076;8.848;2024-02-21T12:47:03;367.67;;;82.70;;
23995;SDS011;12207;50.076;8.848;2024-02-21T12:49:29;368.08;;;83.95;;
23995;SDS011;12207;50.076;8.848;2024-02-21T12:51:55;371.70;;;83.40;;
23995;SDS011;12207;50.076;8.848;2024-02-21T12:54:21;359.35;;;83.07;;
23995;SDS011;12207;50.076;8.848;2024-02-21T12:56:48;367.40;;;83.05;;
23995;SDS011;12207;50.076;8.848;2024-02-21T12:59:15;359.10;;;81.88;;
23995;SDS011;12207;50.076;8.848;2024-02-21T13:01:41;389.48;;;86.65;;
23995;SDS011;12207;50.076;8.848;2024-02-21T13:04:07;370.23;;;84.82;;
23995;SDS011;12207;50.076;8.848;2024-02-21T13:06:33;374.30;;;85.22;;
23995;SDS011;12207;50.076;8.848;2024-02-21T13:09:00;373.88;;;87.78;;
23995;SDS011;12207;50.076;8.848;2024-02-21T13:11:28;358.65;;;83.07;;
23995;SDS011;12207;50.076;8.848;2024-02-21T13:13:56;364.75;;;83.40;;
23995;SDS011;12207;50.076;8.848;2024-02-21T13:16:22;376.40;;;84.88;;
23995;SDS011;12207;50.076;8.848;2024-02-21T13:18:52;373.25;;;84.43;;
23995;SDS011;12207;50.076;8.848;2024-02-21T13:21:18;364.00;;;82.30;;
23995;SDS011;12207;50.076;8.848;2024-02-21T13:23:44;356.20;;;81.22;;
23995;SDS011;12207;50.076;8.848;2024-02-21T13:26:10;366.27;;;84.28;;
23995;SDS011;12207;50.076;8.848;2024-02-21T13:28:37;389.50;;;86.35;;
23995;SDS011;12207;50.076;8.848;2024-02-21T13:31:03;360.77;;;83.57;;
23995;SDS011;12207;50.076;8.848;2024-02-21T13:33:29;366.13;;;82.03;;
23995;SDS011;12207;50.076;8.848;2024-02-21T13:35:56;362.40;;;82.18;;
23995;SDS011;12207;50.076;8.848;2024-02-21T13:38:22;360.63;;;84.72;;
23995;SDS011;12207;50.076;8.848;2024-02-21T13:40:49;360.30;;;84.45;;
23995;SDS011;12207;50.076;8.848;2024-02-21T13:43:15;377.95;;;87.60;;
23995;SDS011;12207;50.076;8.848;2024-02-21T13:45:45;361.23;;;82.50;;
23995;SDS011;12207;50.076;8.848;2024-02-21T13:48:23;374.58;;;87.03;;
23995;SDS011;12207;50.076;8.848;2024-02-21T13:50:49;366.55;;;84.43;;
23995;SDS011;12207;50.076;8.848;2024-02-21T13:53:16;364.13;;;82.57;;
23995;SDS011;12207;50.076;8.848;2024-02-21T13:55:46;426.90;;;89.13;;
23995;SDS011;12207;50.076;8.848;2024-02-21T13:58:12;364.73;;;82.60;;
23995;SDS011;12207;50.076;8.848;2024-02-21T14:00:39;372.10;;;83.60;;
23995;SDS011;12207;50.076;8.848;2024-02-21T14:03:05;365.15;;;81.93;;
23995;SDS011;12207;50.076;8.848;2024-02-21T14:05:34;370.92;;;82.45;;
23995;SDS011;12207;50.076;8.848;2024-02-21T14:08:01;356.67;;;80.88;;
23995;SDS011;12207;50.076;8.848;2024-02-21T14:10:27;370.02;;;82.90;;
23995;SDS011;12207;50.076;8.848;2024-02-21T14:12:53;352.17;;;80.60;;